createdAt,value
2022-08-27T00:00:16.192Z,74.49
2022-08-27T00:02:20.420Z,74.78
2022-08-27T00:04:25.817Z,75.01
2022-08-27T00:06:29.526Z,74.23
2022-08-27T00:08:34.615Z,74.68
2022-08-27T00:10:38.288Z,75.16
2022-08-27T00:12:42.335Z,74.70
2022-08-27T00:14:45.886Z,75.60
2022-08-27T00:16:49.496Z,74.79
2022-08-27T00:18:55.443Z,75.59
2022-08-27T00:20:59.084Z,75.47
2022-08-27T00:23:02.946Z,75.99
2022-08-27T00:25:08.659Z,75.39
2022-08-27T00:27:12.286Z,75.28
2022-08-27T00:29:15.955Z,75.59
2022-08-27T00:31:19.849Z,75.76
2022-08-27T00:33:31.422Z,76.33
2022-08-27T00:35:35.237Z,76.05
2022-08-27T00:37:39.792Z,76.01
2022-08-27T00:39:43.383Z,75.77
2022-08-27T00:41:48.796Z,76.46
2022-08-27T00:43:54.725Z,76.57
2022-08-27T00:46:06.207Z,76.84
2022-08-27T00:48:12.302Z,77.16
2022-08-27T00:50:19.502Z,77.36
2022-08-27T00:52:27.474Z,77.51
2022-08-27T00:54:31.618Z,77.05
2022-08-27T00:56:39.267Z,77.47
2022-08-27T00:58:46.293Z,77.24
2022-08-27T01:00:50.230Z,77.40
2022-08-27T01:02:54.021Z,77.34
2022-08-27T01:05:02.329Z,77.66
2022-08-27T01:07:07.447Z,77.69
2022-08-27T01:09:15.304Z,77.77
2022-08-27T01:11:19.034Z,78.14
2022-08-27T01:13:44.166Z,77.94
2022-08-27T01:15:50.848Z,77.69
2022-08-27T01:17:55.112Z,78.22
2022-08-27T01:20:03.627Z,78.54
2022-08-27T01:22:20.400Z,78.92
2022-08-27T01:24:37.935Z,78.06
2022-08-27T01:26:43.023Z,78.75
2022-08-27T01:28:47.380Z,79.00
2022-08-27T01:30:51.373Z,79.05
2022-08-27T01:32:58.878Z,79.06
2022-08-27T01:35:03.938Z,78.75
2022-08-27T01:37:08.038Z,80.00
2022-08-27T01:39:12.902Z,80.07
2022-08-27T01:41:18.147Z,80.32
2022-08-27T01:43:23.529Z,79.72
2022-08-27T01:45:31.570Z,79.94
2022-08-27T01:47:37.061Z,79.22
2022-08-27T01:49:40.777Z,79.60
2022-08-27T01:51:44.325Z,79.09
2022-08-27T01:53:48.204Z,79.57
2022-08-27T01:55:53.756Z,79.55
2022-08-27T01:57:58.909Z,79.44
2022-08-27T02:00:03.144Z,79.91
2022-08-27T02:02:17.548Z,79.20
2022-08-27T02:04:21.121Z,78.82
2022-08-27T02:06:24.787Z,79.42
2022-08-27T02:08:28.429Z,79.36
2022-08-27T02:10:34.007Z,79.33
2022-08-27T02:12:37.776Z,79.09
2022-08-27T02:14:42.961Z,78.93
2022-08-27T02:16:52.138Z,79.16
2022-08-27T02:18:56.453Z,78.97
2022-08-27T02:21:00.387Z,78.98
2022-08-27T02:23:04.811Z,79.11
2022-08-27T02:25:10.534Z,78.99
2022-08-27T02:27:14.311Z,79.34
2022-08-27T02:29:17.811Z,79.86
2022-08-27T02:31:23.775Z,79.58
2022-08-27T02:33:27.541Z,79.37
2022-08-27T02:35:39.251Z,79.78
2022-08-27T02:37:43.777Z,79.26
2022-08-27T02:39:47.533Z,79.35
2022-08-27T02:41:51.117Z,79.62
2022-08-27T02:43:54.761Z,79.39
2022-08-27T02:45:58.498Z,79.18
2022-08-27T02:48:03.929Z,79.74
2022-08-27T02:50:09.098Z,79.64
2022-08-27T02:52:13.415Z,79.55
2022-08-27T02:54:16.925Z,79.22
2022-08-27T02:56:21.826Z,79.30
2022-08-27T02:58:25.572Z,79.44
2022-08-27T03:00:30.041Z,79.72
2022-08-27T03:02:33.619Z,79.44
2022-08-27T03:04:39.006Z,79.48
2022-08-27T03:06:42.998Z,79.51
2022-08-27T03:08:51.940Z,79.64
2022-08-27T03:10:56.841Z,79.49
2022-08-27T03:13:00.840Z,79.53
2022-08-27T03:15:05.166Z,79.92
2022-08-27T03:17:22.437Z,79.91
2022-08-27T03:19:27.030Z,79.36
2022-08-27T03:21:32.246Z,79.72
2022-08-27T03:23:36.676Z,79.72
2022-08-27T03:25:40.599Z,79.79
2022-08-27T03:27:44.202Z,79.81
2022-08-27T03:29:48.663Z,80.32
2022-08-27T03:31:52.234Z,79.84
2022-08-27T03:33:58.004Z,80.13
2022-08-27T03:36:01.739Z,80.14
2022-08-27T03:38:07.021Z,80.25
2022-08-27T03:40:11.384Z,80.28
2022-08-27T03:42:17.090Z,79.81
2022-08-27T03:44:21.944Z,80.01
2022-08-27T03:46:30.318Z,80.08
2022-08-27T03:48:34.400Z,80.45
2022-08-27T03:50:39.772Z,80.42
2022-08-27T03:52:43.218Z,80.48
2022-08-27T03:54:48.300Z,80.61
2022-08-27T03:56:51.856Z,80.82
2022-08-27T03:58:55.648Z,80.74
2022-08-27T04:00:59.518Z,80.41
2022-08-27T04:03:03.315Z,80.62
2022-08-27T04:05:07.841Z,81.53
2022-08-27T04:07:11.531Z,81.50
2022-08-27T04:09:15.062Z,81.54
2022-08-27T04:11:22.248Z,81.28
2022-08-27T04:13:25.919Z,81.43
2022-08-27T04:15:30.097Z,81.33
2022-08-27T04:17:34.080Z,82.24
2022-08-27T04:19:37.692Z,81.32
2022-08-27T04:21:41.337Z,81.35
2022-08-27T04:23:45.024Z,81.40
2022-08-27T04:25:48.630Z,82.01
2022-08-27T04:27:54.135Z,81.41
2022-08-27T04:29:58.388Z,82.11
2022-08-27T04:32:02.069Z,81.93
2022-08-27T04:34:07.922Z,81.83
2022-08-27T04:36:12.155Z,82.08
2022-08-27T04:38:15.831Z,82.11
2022-08-27T04:40:19.641Z,81.70
2022-08-27T04:42:23.097Z,82.60
2022-08-27T04:44:30.112Z,82.63
2022-08-27T04:46:35.372Z,82.52
2022-08-27T04:48:38.746Z,82.45
2022-08-27T04:50:43.478Z,82.58
2022-08-27T04:52:46.825Z,82.60
2022-08-27T04:54:51.069Z,82.54
2022-08-27T04:56:54.522Z,82.82
2022-08-27T04:58:58.115Z,82.62
2022-08-27T05:01:02.885Z,82.53
2022-08-27T05:03:06.203Z,82.74
2022-08-27T05:05:14.193Z,83.43
2022-08-27T05:07:19.331Z,83.20
2022-08-27T05:09:24.448Z,83.48
2022-08-27T05:11:32.304Z,83.59
2022-08-27T05:13:35.707Z,83.34
2022-08-27T05:15:39.607Z,83.70
2022-08-27T05:17:44.567Z,83.65
2022-08-27T05:19:48.618Z,83.73
2022-08-27T05:21:54.396Z,83.00
2022-08-27T05:23:59.911Z,82.95
2022-08-27T05:26:03.279Z,83.17
2022-08-27T05:28:06.552Z,82.89
2022-08-27T05:30:10.684Z,82.84
2022-08-27T05:32:13.915Z,82.90
2022-08-27T05:34:25.798Z,82.73
2022-08-27T05:36:31.671Z,82.99
2022-08-27T05:38:36.325Z,83.12
2022-08-27T05:40:40.618Z,83.23
2022-08-27T05:42:44.036Z,83.89
2022-08-27T05:44:53.574Z,83.22
2022-08-27T05:46:57.093Z,82.89
2022-08-27T05:49:01.795Z,83.20
2022-08-27T05:51:11.500Z,82.99
2022-08-27T05:53:15.071Z,83.09
2022-08-27T05:55:18.480Z,82.81
2022-08-27T05:57:21.690Z,82.61
2022-08-27T05:59:42.142Z,82.66
2022-08-27T06:01:46.692Z,82.50
2022-08-27T06:03:49.938Z,82.16
2022-08-27T06:06:01.930Z,82.50
2022-08-27T06:08:06.939Z,82.32
2022-08-27T06:10:11.223Z,83.65
2022-08-27T06:12:14.476Z,83.06
2022-08-27T06:14:17.909Z,82.33
2022-08-27T06:16:21.504Z,82.53
2022-08-27T06:18:24.748Z,82.70
2022-08-27T06:20:28.062Z,82.38
2022-08-27T06:22:31.350Z,82.87
2022-08-27T06:24:36.614Z,82.21
2022-08-27T06:26:41.293Z,81.38
2022-08-27T06:28:45.658Z,81.21
2022-08-27T06:30:48.917Z,80.05
2022-08-27T06:32:52.314Z,79.57
2022-08-27T06:34:55.592Z,79.14
2022-08-27T06:36:58.915Z,78.59
2022-08-27T06:39:02.300Z,78.53
2022-08-27T06:41:16.232Z,77.30
2022-08-27T06:43:24.542Z,76.57
2022-08-27T06:45:28.473Z,75.73
2022-08-27T06:47:33.225Z,75.29
2022-08-27T06:49:36.657Z,74.43
2022-08-27T06:51:42.037Z,74.40
2022-08-27T06:53:47.201Z,73.39
2022-08-27T06:55:51.054Z,73.33
2022-08-27T06:57:56.618Z,73.22
2022-08-27T07:00:00.152Z,73.17
2022-08-27T07:02:03.499Z,73.11
2022-08-27T07:04:09.903Z,72.17
2022-08-27T07:06:14.618Z,71.30
2022-08-27T07:08:17.838Z,69.89
2022-08-27T07:10:21.373Z,68.50
2022-08-27T07:12:30.408Z,68.34
2022-08-27T07:14:38.223Z,67.48
2022-08-27T07:16:42.141Z,67.00
2022-08-27T07:18:50.142Z,65.58
2022-08-27T07:20:56.548Z,63.73
2022-08-27T07:23:00.179Z,62.21
2022-08-27T07:25:03.946Z,60.26
2022-08-27T07:27:07.958Z,58.85
2022-08-27T07:29:14.637Z,57.85
2022-08-27T07:31:22.239Z,56.18
2022-08-27T07:33:25.882Z,55.41
2022-08-27T07:35:29.207Z,54.58
2022-08-27T07:37:35.284Z,53.92
2022-08-27T07:39:38.779Z,52.23
2022-08-27T07:41:55.861Z,51.68
2022-08-27T07:44:16.913Z,50.00
2022-08-27T07:46:22.476Z,49.76
2022-08-27T07:48:27.991Z,49.11
2022-08-27T07:50:31.275Z,48.84
2022-08-27T07:52:34.775Z,47.98
2022-08-27T07:54:38.222Z,47.66
2022-08-27T07:56:42.160Z,47.32
2022-08-27T07:58:48.396Z,47.79
2022-08-27T08:00:51.941Z,48.09
2022-08-27T08:02:56.691Z,48.72
2022-08-27T08:05:01.184Z,50.88
2022-08-27T08:07:04.575Z,52.61
2022-08-27T08:09:10.666Z,54.06
2022-08-27T08:11:17.982Z,55.27
2022-08-27T08:13:21.295Z,56.58
2022-08-27T08:15:24.723Z,57.02
2022-08-27T08:17:28.083Z,57.74
2022-08-27T08:19:33.868Z,58.57
2022-08-27T08:21:38.184Z,59.06
2022-08-27T08:23:42.891Z,59.81
2022-08-27T08:25:46.476Z,60.36
2022-08-27T08:27:49.856Z,60.83
2022-08-27T08:29:53.512Z,61.61
2022-08-27T08:31:57.113Z,61.82
2022-08-27T08:34:01.076Z,62.09
2022-08-27T08:36:08.990Z,61.78
2022-08-27T08:38:12.837Z,62.13
2022-08-27T08:40:27.801Z,62.23
2022-08-27T08:42:36.097Z,62.72
2022-08-27T08:44:46.657Z,62.64
2022-08-27T08:46:54.343Z,62.65
2022-08-27T08:49:04.102Z,62.71
2022-08-27T08:51:17.439Z,62.81
2022-08-27T08:53:26.656Z,62.13
2022-08-27T08:55:43.159Z,62.02
2022-08-27T08:57:53.534Z,61.72
2022-08-27T09:00:03.833Z,61.01
2022-08-27T09:02:13.154Z,60.82
2022-08-27T09:04:17.590Z,60.14
2022-08-27T09:06:32.240Z,60.22
2022-08-27T09:08:41.616Z,59.74
2022-08-27T09:10:52.648Z,59.23
2022-08-27T09:13:01.584Z,59.26
2022-08-27T09:15:14.128Z,58.55
2022-08-27T09:17:18.135Z,58.81
2022-08-27T09:19:24.096Z,59.07
2022-08-27T09:21:52.917Z,58.03
2022-08-27T09:24:06.767Z,57.98
2022-08-27T09:26:19.945Z,57.08
2022-08-27T09:28:45.044Z,56.31
2022-08-27T09:30:48.789Z,55.46
2022-08-27T09:32:57.974Z,55.08
2022-08-27T09:35:04.426Z,54.73
2022-08-27T09:37:12.609Z,54.59
2022-08-27T09:39:16.974Z,53.76
2022-08-27T09:41:27.074Z,52.85
2022-08-27T09:43:32.270Z,51.58
2022-08-27T09:45:36.920Z,51.32
2022-08-27T09:47:46.965Z,52.22
2022-08-27T09:50:01.488Z,52.80
2022-08-27T09:52:28.673Z,53.35
2022-08-27T09:54:42.355Z,52.54
2022-08-27T09:56:50.436Z,51.66
2022-08-27T09:58:56.829Z,51.14
2022-08-27T10:01:04.275Z,51.41
2022-08-27T10:03:09.924Z,51.41
2022-08-27T10:05:24.442Z,50.42
2022-08-27T10:07:38.345Z,50.43
2022-08-27T10:09:49.163Z,50.07
2022-08-27T10:12:01.573Z,49.63
2022-08-27T10:14:14.090Z,49.40
2022-08-27T10:16:37.800Z,48.85
2022-08-27T10:18:50.054Z,48.12
2022-08-27T10:21:11.781Z,48.39
2022-08-27T10:23:30.288Z,49.05
2022-08-27T10:25:42.254Z,48.86
2022-08-27T10:27:53.150Z,49.00
2022-08-27T10:30:03.807Z,49.61
2022-08-27T10:32:18.637Z,50.76
2022-08-27T10:34:33.600Z,52.08
2022-08-27T10:36:54.315Z,52.92
2022-08-27T10:39:08.586Z,52.84
2022-08-27T10:41:18.838Z,52.83
2022-08-27T10:43:45.745Z,53.00
2022-08-27T10:45:58.066Z,52.71
2022-08-27T10:48:12.281Z,51.57
2022-08-27T10:50:29.304Z,51.69
2022-08-27T10:52:39.167Z,51.26
2022-08-27T10:54:53.040Z,50.58
2022-08-27T10:57:24.637Z,50.73
2022-08-27T10:59:36.529Z,50.24
2022-08-27T11:01:50.979Z,50.43
2022-08-27T11:04:01.067Z,50.08
2022-08-27T11:06:12.036Z,50.19
2022-08-27T11:08:22.867Z,49.91
2022-08-27T11:10:30.869Z,50.02
2022-08-27T11:12:38.521Z,50.43
2022-08-27T11:14:49.399Z,50.79
2022-08-27T11:16:59.599Z,50.76
2022-08-27T11:19:10.398Z,51.17
2022-08-27T11:21:18.349Z,50.94
2022-08-27T11:23:26.450Z,50.79
2022-08-27T11:25:41.046Z,51.10
2022-08-27T11:27:46.640Z,50.88
2022-08-27T11:30:00.004Z,50.72
2022-08-27T11:32:15.870Z,50.24
2022-08-27T11:34:26.911Z,50.74
2022-08-27T11:36:57.615Z,51.59
2022-08-27T11:39:06.096Z,51.96
2022-08-27T11:41:28.433Z,53.18
2022-08-27T11:43:37.263Z,53.94
2022-08-27T11:45:54.018Z,53.96
2022-08-27T11:48:00.228Z,54.07
2022-08-27T11:50:09.637Z,54.15
2022-08-27T11:52:15.446Z,53.79
2022-08-27T11:54:28.034Z,53.17
2022-08-27T11:56:42.139Z,53.62
2022-08-27T11:58:53.227Z,54.11
2022-08-27T12:01:01.013Z,54.36
2022-08-27T12:03:10.457Z,54.07
2022-08-27T12:05:26.605Z,54.30
2022-08-27T12:07:36.145Z,54.24
2022-08-27T12:10:05.930Z,52.76
2022-08-27T12:12:18.412Z,52.47
2022-08-27T12:14:39.853Z,52.66
2022-08-27T12:16:50.372Z,52.89
2022-08-27T12:19:04.998Z,52.78
2022-08-27T12:21:27.633Z,52.97
2022-08-27T12:23:45.266Z,52.54
2022-08-27T12:25:58.169Z,52.62
2022-08-27T12:28:06.945Z,52.36
2022-08-27T12:30:23.089Z,52.55
2022-08-27T12:32:30.361Z,52.38
2022-08-27T12:34:45.074Z,52.20
2022-08-27T12:36:50.835Z,52.75
2022-08-27T12:38:59.440Z,52.96
2022-08-27T12:41:08.894Z,53.02
2022-08-27T12:43:15.906Z,53.30
2022-08-27T12:45:22.256Z,53.61
2022-08-27T12:47:26.107Z,53.36
2022-08-27T12:49:39.320Z,53.28
2022-08-27T12:51:46.230Z,52.56
2022-08-27T12:53:56.752Z,52.72
2022-08-27T12:56:12.734Z,52.95
2022-08-27T12:58:26.123Z,53.05
2022-08-27T13:00:38.111Z,53.36
2022-08-27T13:03:07.589Z,53.99
2022-08-27T13:05:12.860Z,54.09
2022-08-27T13:07:28.668Z,54.30
2022-08-27T13:09:38.545Z,54.76
2022-08-27T13:11:47.014Z,54.87
2022-08-27T13:13:53.028Z,55.20
2022-08-27T13:15:58.938Z,55.58
2022-08-27T13:18:07.005Z,55.35
2022-08-27T13:20:17.755Z,55.63
2022-08-27T13:22:26.137Z,55.61
2022-08-27T13:24:34.147Z,57.07
2022-08-27T13:26:41.445Z,57.33
2022-08-27T13:28:46.202Z,56.95
2022-08-27T13:30:52.907Z,56.99
2022-08-27T13:32:58.619Z,57.36
2022-08-27T13:35:03.832Z,57.53
2022-08-27T13:37:22.216Z,57.26
2022-08-27T13:39:27.223Z,57.44
2022-08-27T13:41:35.321Z,57.79
2022-08-27T13:43:41.003Z,57.72
2022-08-27T13:45:54.609Z,57.65
2022-08-27T13:47:58.806Z,57.57
2022-08-27T13:50:04.885Z,58.15
2022-08-27T13:52:17.709Z,58.35
2022-08-27T13:54:20.307Z,58.36
2022-08-27T13:56:31.828Z,58.44
2022-08-27T13:58:37.276Z,58.39
2022-08-27T14:00:41.205Z,58.69
2022-08-27T14:02:56.000Z,58.52
2022-08-27T14:05:11.477Z,58.45
2022-08-27T14:07:17.965Z,58.61
2022-08-27T14:09:26.497Z,58.33
2022-08-27T14:11:31.154Z,58.64
2022-08-27T14:13:41.793Z,59.16
2022-08-27T14:15:50.692Z,59.48
2022-08-27T14:17:56.853Z,60.14
2022-08-27T14:20:03.190Z,59.97
2022-08-27T14:22:08.309Z,59.39
2022-08-27T14:24:14.102Z,59.40
2022-08-27T14:26:18.119Z,59.90
2022-08-27T14:28:22.538Z,59.69
2022-08-27T14:30:29.341Z,59.44
2022-08-27T14:32:33.691Z,59.14
2022-08-27T14:34:39.395Z,59.07
2022-08-27T14:36:45.036Z,59.35
2022-08-27T14:38:51.241Z,59.06
2022-08-27T14:40:56.043Z,58.72
2022-08-27T14:42:59.520Z,58.60
2022-08-27T14:45:03.260Z,58.37
2022-08-27T14:47:09.618Z,57.83
2022-08-27T14:49:17.788Z,57.54
2022-08-27T14:51:26.783Z,57.89
2022-08-27T14:53:31.533Z,58.25
2022-08-27T14:55:35.432Z,58.65
2022-08-27T14:57:40.082Z,58.58
2022-08-27T14:59:44.168Z,58.80
2022-08-27T15:01:48.201Z,59.44
2022-08-27T15:03:53.035Z,59.75
2022-08-27T15:05:58.053Z,59.99
2022-08-27T15:08:04.677Z,59.15
2022-08-27T15:10:09.435Z,59.18
2022-08-27T15:12:25.678Z,59.04
2022-08-27T15:14:32.719Z,59.01
2022-08-27T15:16:40.282Z,58.45
2022-08-27T15:18:44.373Z,57.27
2022-08-27T15:21:03.052Z,57.24
2022-08-27T15:23:08.813Z,57.25
2022-08-27T15:25:14.227Z,57.37
2022-08-27T15:27:18.336Z,57.91
2022-08-27T15:29:26.724Z,57.58
2022-08-27T15:31:31.204Z,57.18
2022-08-27T15:33:35.342Z,57.14
2022-08-27T15:35:39.369Z,57.40
2022-08-27T15:37:43.837Z,57.07
2022-08-27T15:39:49.237Z,56.67
2022-08-27T15:42:08.355Z,56.70
2022-08-27T15:44:12.837Z,56.69
2022-08-27T15:46:18.403Z,55.73
2022-08-27T15:48:22.502Z,56.06
2022-08-27T15:50:26.838Z,56.09
2022-08-27T15:52:38.439Z,56.74
2022-08-27T15:54:46.759Z,56.12
2022-08-27T15:56:52.279Z,56.31
2022-08-27T15:58:56.131Z,55.46
2022-08-27T16:01:07.726Z,55.04
2022-08-27T16:03:14.401Z,55.27
2022-08-27T16:05:19.013Z,55.38
2022-08-27T16:07:22.664Z,55.10
2022-08-27T16:09:26.338Z,55.18
2022-08-27T16:11:29.943Z,55.14
2022-08-27T16:13:35.038Z,55.46
2022-08-27T16:15:41.323Z,54.96
2022-08-27T16:17:46.367Z,54.79
2022-08-27T16:19:49.858Z,54.68
2022-08-27T16:21:54.089Z,54.13
2022-08-27T16:23:57.625Z,54.11
2022-08-27T16:26:02.965Z,53.95
2022-08-27T16:28:06.640Z,54.41
2022-08-27T16:30:12.954Z,54.23
2022-08-27T16:32:19.307Z,54.35
2022-08-27T16:34:26.639Z,54.39
2022-08-27T16:36:30.873Z,54.02
2022-08-27T16:38:34.676Z,54.26
2022-08-27T16:40:50.292Z,54.10
2022-08-27T16:42:54.369Z,53.90
2022-08-27T16:44:57.769Z,53.48
2022-08-27T16:47:02.794Z,52.69
2022-08-27T16:49:23.187Z,52.01
2022-08-27T16:51:32.620Z,51.18
2022-08-27T16:53:43.372Z,50.87
2022-08-27T16:55:48.135Z,51.49
2022-08-27T16:57:51.562Z,51.84
2022-08-27T16:59:56.041Z,52.12
2022-08-27T17:01:59.840Z,51.70
2022-08-27T17:04:14.822Z,51.81
2022-08-27T17:06:26.084Z,51.66
2022-08-27T17:08:30.769Z,51.21
2022-08-27T17:10:40.129Z,51.57
2022-08-27T17:12:46.373Z,51.46
2022-08-27T17:14:51.115Z,51.42
2022-08-27T17:16:55.205Z,51.17
2022-08-27T17:18:59.931Z,50.87
2022-08-27T17:21:06.250Z,50.85
2022-08-27T17:23:17.955Z,50.91
2022-08-27T17:25:21.760Z,51.40
2022-08-27T17:27:33.837Z,51.56
2022-08-27T17:29:38.208Z,51.52
2022-08-27T17:31:43.911Z,51.08
2022-08-27T17:33:49.636Z,50.85
2022-08-27T17:35:53.120Z,51.00
2022-08-27T17:37:58.121Z,51.44
2022-08-27T17:40:01.976Z,51.94
2022-08-27T17:42:06.907Z,52.08
2022-08-27T17:44:17.084Z,52.48
2022-08-27T17:46:20.660Z,52.70
2022-08-27T17:48:26.711Z,52.83
2022-08-27T17:50:30.547Z,52.91
2022-08-27T17:52:36.030Z,53.13
2022-08-27T17:54:43.360Z,52.97
2022-08-27T17:56:46.783Z,53.22
2022-08-27T17:58:52.394Z,53.61
2022-08-27T18:00:56.289Z,54.08
2022-08-27T18:03:00.610Z,54.17
2022-08-27T18:05:05.864Z,54.36
2022-08-27T18:07:09.626Z,54.61
2022-08-27T18:09:16.000Z,53.96
2022-08-27T18:11:21.718Z,54.43
2022-08-27T18:13:25.878Z,53.93
2022-08-27T18:15:31.167Z,53.86
2022-08-27T18:17:35.220Z,54.19
2022-08-27T18:19:45.567Z,54.67
2022-08-27T18:21:49.429Z,54.68
2022-08-27T18:23:53.105Z,54.33
2022-08-27T18:25:58.045Z,54.63
2022-08-27T18:28:06.329Z,54.77
2022-08-27T18:30:12.036Z,54.49
2022-08-27T18:32:15.612Z,55.12
2022-08-27T18:34:21.792Z,54.83
2022-08-27T18:36:25.526Z,55.25
2022-08-27T18:38:29.413Z,55.63
2022-08-27T18:40:38.454Z,55.83
2022-08-27T18:42:42.556Z,56.04
2022-08-27T18:44:47.550Z,55.79
2022-08-27T18:46:51.859Z,55.78
2022-08-27T18:48:55.651Z,56.43
2022-08-27T18:51:01.665Z,56.34
2022-08-27T18:53:05.215Z,56.27
2022-08-27T18:55:12.687Z,56.66
2022-08-27T18:57:16.530Z,56.78
2022-08-27T18:59:20.307Z,56.92
2022-08-27T19:01:27.933Z,58.54
2022-08-27T19:03:34.990Z,58.95
2022-08-27T19:05:38.672Z,60.27
2022-08-27T19:07:42.376Z,60.44
2022-08-27T19:09:45.994Z,61.52
2022-08-27T19:11:51.676Z,61.94
2022-08-27T19:13:55.337Z,61.76
2022-08-27T19:16:02.341Z,62.41
2022-08-27T19:18:09.343Z,63.03
2022-08-27T19:20:12.926Z,64.31
2022-08-27T19:22:16.435Z,64.94
2022-08-27T19:24:20.801Z,65.20
2022-08-27T19:26:27.426Z,65.54
2022-08-27T19:28:36.857Z,66.03
2022-08-27T19:30:40.633Z,65.75
2022-08-27T19:32:44.425Z,65.96
2022-08-27T19:34:49.826Z,65.96
2022-08-27T19:36:53.709Z,66.46
2022-08-27T19:38:57.392Z,66.90
2022-08-27T19:41:01.335Z,67.88
2022-08-27T19:43:05.198Z,68.14
2022-08-27T19:45:09.805Z,68.82
2022-08-27T19:47:16.174Z,69.25
2022-08-27T19:49:25.223Z,69.38
2022-08-27T19:51:30.639Z,69.18
2022-08-27T19:53:35.620Z,68.90
2022-08-27T19:55:39.967Z,68.57
2022-08-27T19:57:43.866Z,68.72
2022-08-27T19:59:47.500Z,68.61
2022-08-27T20:01:52.925Z,68.69
2022-08-27T20:03:56.796Z,68.56
2022-08-27T20:06:03.375Z,68.56
2022-08-27T20:08:09.139Z,68.45
2022-08-27T20:10:12.522Z,68.55
2022-08-27T20:12:16.338Z,68.64
2022-08-27T20:14:20.409Z,68.57
2022-08-27T20:16:24.170Z,68.42
2022-08-27T20:18:28.179Z,68.27
2022-08-27T20:20:33.071Z,68.42
2022-08-27T20:22:37.330Z,68.27
2022-08-27T20:24:42.390Z,68.44
2022-08-27T20:26:46.124Z,68.45
2022-08-27T20:28:49.974Z,68.30
2022-08-27T20:30:53.732Z,68.38
2022-08-27T20:32:57.429Z,68.14
2022-08-27T20:35:01.198Z,67.94
2022-08-27T20:37:05.683Z,68.07
2022-08-27T20:39:09.993Z,67.96
2022-08-27T20:41:14.903Z,68.29
2022-08-27T20:43:18.965Z,67.95
2022-08-27T20:45:22.828Z,68.07
2022-08-27T20:47:29.232Z,67.92
2022-08-27T20:49:35.588Z,68.17
2022-08-27T20:51:51.197Z,68.52
2022-08-27T20:54:03.590Z,68.31
2022-08-27T20:56:08.977Z,68.39
2022-08-27T20:58:28.339Z,68.40
2022-08-27T21:00:32.778Z,68.65
2022-08-27T21:02:36.542Z,68.67
2022-08-27T21:04:41.287Z,68.77
2022-08-27T21:06:44.974Z,68.85
2022-08-27T21:08:48.892Z,68.63
2022-08-27T21:10:55.277Z,69.18
2022-08-27T21:13:01.221Z,68.97
2022-08-27T21:15:10.051Z,69.11
2022-08-27T21:17:13.607Z,69.20
2022-08-27T21:19:17.255Z,69.09
2022-08-27T21:21:20.910Z,69.39
2022-08-27T21:23:25.494Z,69.31
2022-08-27T21:25:29.372Z,69.13
2022-08-27T21:27:33.508Z,69.29
2022-08-27T21:29:37.416Z,69.26
2022-08-27T21:31:42.948Z,69.36
2022-08-27T21:33:46.715Z,69.19
2022-08-27T21:35:50.552Z,69.34
2022-08-27T21:37:54.253Z,69.61
2022-08-27T21:39:57.997Z,69.57
2022-08-27T21:42:02.133Z,69.79
2022-08-27T21:44:06.206Z,69.71
2022-08-27T21:46:10.058Z,69.36
2022-08-27T21:48:15.438Z,69.27
2022-08-27T21:50:19.410Z,69.11
2022-08-27T21:52:23.959Z,68.83
2022-08-27T21:54:28.153Z,68.62
2022-08-27T21:56:33.393Z,68.46
2022-08-27T21:58:37.086Z,68.44
2022-08-27T22:00:45.261Z,68.36
2022-08-27T22:02:49.000Z,68.52
2022-08-27T22:04:54.785Z,68.26
2022-08-27T22:06:58.255Z,68.18
2022-08-27T22:09:02.242Z,68.21
2022-08-27T22:11:06.175Z,68.20
2022-08-27T22:13:10.202Z,68.03
2022-08-27T22:15:14.150Z,68.29
2022-08-27T22:17:17.859Z,68.43
2022-08-27T22:19:21.692Z,68.61
2022-08-27T22:21:27.056Z,68.79
2022-08-27T22:23:31.227Z,68.97
2022-08-27T22:25:35.086Z,68.94
2022-08-27T22:27:38.997Z,68.95
2022-08-27T22:29:42.534Z,69.04
2022-08-27T22:31:46.101Z,68.81
2022-08-27T22:33:52.607Z,68.81
2022-08-27T22:35:56.290Z,68.94
2022-08-27T22:38:01.695Z,69.13
2022-08-27T22:40:19.182Z,69.16
2022-08-27T22:42:23.572Z,69.47
2022-08-27T22:44:29.733Z,69.26
2022-08-27T22:46:33.440Z,69.29
2022-08-27T22:48:37.006Z,69.26
2022-08-27T22:50:40.694Z,69.50
2022-08-27T22:52:44.780Z,69.31
2022-08-27T22:54:49.879Z,69.32
2022-08-27T22:56:58.331Z,69.24
2022-08-27T22:59:01.914Z,68.83
2022-08-27T23:01:10.906Z,68.97
2022-08-27T23:03:15.042Z,68.94
2022-08-27T23:05:18.751Z,69.02
2022-08-27T23:07:22.432Z,68.97
2022-08-27T23:09:25.856Z,68.72
2022-08-27T23:11:32.099Z,69.11
2022-08-27T23:13:35.865Z,69.07
2022-08-27T23:15:39.764Z,69.09
2022-08-27T23:17:43.460Z,69.31
2022-08-27T23:19:47.206Z,69.25
2022-08-27T23:21:52.236Z,69.49
2022-08-27T23:23:56.813Z,69.51
2022-08-27T23:26:23.323Z,69.62
2022-08-27T23:28:28.422Z,69.61
2022-08-27T23:30:32.541Z,69.80
2022-08-27T23:32:37.052Z,70.07
2022-08-27T23:34:40.654Z,70.13
2022-08-27T23:36:44.500Z,70.34
2022-08-27T23:38:48.049Z,70.81
2022-08-27T23:40:52.507Z,70.82
2022-08-27T23:42:56.185Z,70.94
2022-08-27T23:45:01.397Z,70.88
2022-08-27T23:47:05.305Z,71.09
2022-08-27T23:49:08.963Z,71.22
2022-08-27T23:51:14.141Z,71.00
2022-08-27T23:53:17.954Z,71.38
2022-08-27T23:55:21.484Z,71.47
2022-08-27T23:57:25.121Z,71.54
2022-08-27T23:59:30.514Z,71.58
